Time;durP1;ratioP1;P1;durP2;ratioP2;P2;SDS_P1;SDS_P2;PMS_P1;PMS_P2;Temp;Humidity;BMP_temperature;BMP_pressure;BME280_temperature;BME280_humidity;BME280_pressure;Samples;Min_cycle;Max_cycle;Signal;HPM_P1;HPM_P2
2023/12/02 00:01:43;;;;;;;25.63;16.30;;;-0.70;93.60;;;-1.79;100.00;96615.88;5084617;28;21027;-75
2023/12/02 00:04:10;;;;;;;28.20;15.80;;;-0.80;93.40;;;-1.97;100.00;96579.06;5078206;28;20453;-75
2023/12/02 00:06:37;;;;;;;26.10;15.67;;;-0.80;93.50;;;-1.83;100.00;96585.44;5072001;28;20536;-75
2023/12/02 00:09:04;;;;;;;28.50;15.97;;;-0.70;94.00;;;-1.87;100.00;96595.56;5087747;28;20439;-75
2023/12/02 00:11:31;;;;;;;27.73;15.30;;;-0.80;93.50;;;-1.57;100.00;96610.84;5087444;28;20448;-75
2023/12/02 00:14:01;;;;;;;25.00;16.33;;;-0.70;93.90;;;-1.72;100.00;96614.22;5089849;28;20483;-74
2023/12/02 00:16:28;;;;;;;30.87;16.23;;;-0.70;93.10;;;-1.98;100.00;96625.03;5087390;28;20461;-74
2023/12/02 00:18:55;;;;;;;29.70;16.90;;;-0.90;92.50;;;-2.04;100.00;96621.28;5085875;28;20446;-74
2023/12/02 00:21:22;;;;;;;31.83;16.50;;;-1.00;93.20;;;-1.93;100.00;96628.00;5088065;28;20570;-74
2023/12/02 00:23:49;;;;;;;26.23;16.00;;;-1.00;93.90;;;-1.89;100.00;96628.50;5088887;28;20454;-73
2023/12/02 00:26:17;;;;;;;31.17;16.70;;;-0.90;94.80;;;-1.90;100.00;96627.66;5087186;28;20572;-74
2023/12/02 00:28:44;;;;;;;30.37;17.33;;;-0.90;95.20;;;-1.91;100.00;96617.25;5089008;28;20440;-75
2023/12/02 00:31:12;;;;;;;27.90;14.87;;;-0.90;95.30;;;-2.04;100.00;96584.22;5088981;28;20447;-74
2023/12/02 00:33:40;;;;;;;27.23;15.40;;;-0.90;95.20;;;-1.98;100.00;96622.38;5088230;28;20477;-75
2023/12/02 00:36:08;;;;;;;29.10;17.27;;;-1.00;95.20;;;-1.92;100.00;96608.50;5087156;28;20443;-74
2023/12/02 00:38:35;;;;;;;30.00;16.90;;;-1.00;95.60;;;-2.01;100.00;96605.03;5087170;28;20438;-74
2023/12/02 00:41:02;;;;;;;30.83;18.00;;;-1.00;95.40;;;-1.98;100.00;96592.47;5087474;28;20535;-75
2023/12/02 00:43:29;;;;;;;32.93;17.30;;;-1.00;95.70;;;-1.85;100.00;96582.97;5086569;28;20466;-74
2023/12/02 00:45:57;;;;;;;25.93;16.60;;;-1.00;95.90;;;-1.76;100.00;96577.63;5086407;28;20452;-75
2023/12/02 00:48:25;;;;;;;28.73;17.17;;;-0.80;96.50;;;-1.96;100.00;96566.63;5085567;28;20452;-74
2023/12/02 00:50:53;;;;;;;26.23;16.00;;;-0.90;95.40;;;-1.94;100.00;96572.56;5087434;28;20516;-74
2023/12/02 00:53:20;;;;;;;26.90;15.83;;;-0.90;95.30;;;-1.99;100.00;96570.44;5085030;28;20511;-75
2023/12/02 00:55:47;;;;;;;27.77;16.20;;;-0.90;95.20;;;-2.20;100.00;96566.56;5087186;28;20944;-75
2023/12/02 00:58:15;;;;;;;31.87;17.77;;;-1.10;94.80;;;-2.04;100.00;96573.63;5085429;28;20524;-75
2023/12/02 01:00:42;;;;;;;28.30;16.10;;;-1.10;95.10;;;-2.11;100.00;96543.53;5085316;28;20462;-75
2023/12/02 01:03:09;;;;;;;26.93;16.23;;;-1.00;95.60;;;-2.02;100.00;96568.97;5087588;28;20464;-75
2023/12/02 01:05:38;;;;;;;31.73;16.83;;;-1.00;95.50;;;-2.06;100.00;96586.19;5087448;28;20505;-74
2023/12/02 01:08:05;;;;;;;29.00;15.67;;;-1.00;95.40;;;-2.17;100.00;96597.97;5086562;28;20444;-75
2023/12/02 01:10:33;;;;;;;29.67;16.77;;;-1.10;95.10;;;-2.02;100.00;96605.19;5088419;28;20542;-74
2023/12/02 01:13:00;;;;;;;27.33;16.90;;;-1.10;95.30;;;-2.03;100.00;96607.03;5094121;28;20484;-74
2023/12/02 01:15:27;;;;;;;30.23;17.10;;;-1.00;95.80;;;-1.86;100.00;96591.91;5102868;28;20452;-74
2023/12/02 01:17:54;;;;;;;27.73;15.10;;;-1.00;95.80;;;-1.84;100.00;96586.44;5086494;28;21052;-74
2023/12/02 01:20:22;;;;;;;27.97;16.30;;;-0.90;95.20;;;-1.77;99.30;96574.16;5085716;28;20469;-74
2023/12/02 01:22:50;;;;;;;25.00;16.00;;;-0.80;93.80;;;-1.81;100.00;96578.16;5088454;28;20464;-74
2023/12/02 01:25:17;;;;;;;25.10;14.43;;;-0.90;93.00;;;-1.95;100.00;96565.63;5086700;28;20442;-74
2023/12/02 01:27:45;;;;;;;23.33;14.00;;;-0.90;93.20;;;-2.00;100.00;96589.97;5088659;28;20453;-75
2023/12/02 01:30:12;;;;;;;26.13;15.27;;;-0.90;92.40;;;-2.10;100.00;96571.66;5084647;28;20457;-75
2023/12/02 01:32:39;;;;;;;21.87;14.00;;;-1.00;93.00;;;-2.73;100.00;96510.63;5080280;28;20450;-74
2023/12/02 01:35:07;;;;;;;24.33;16.10;;;-1.10;92.40;;;-2.17;100.00;96615.69;5085771;28;20940;-74
2023/12/02 01:37:34;;;;;;;29.50;15.40;;;-1.10;92.70;;;-2.05;100.00;96608.19;5087629;28;20462;-75
2023/12/02 01:40:03;;;;;;;28.17;16.07;;;-1.10;93.10;;;-2.06;100.00;96601.25;5088620;28;20460;-73
2023/12/02 01:42:31;;;;;;;23.07;13.57;;;-1.10;93.40;;;-1.96;100.00;96611.63;5087484;28;20948;-74
2023/12/02 01:44:58;;;;;;;25.17;15.70;;;-1.00;93.60;;;-2.11;100.00;96620.28;5086759;28;20515;-74
2023/12/02 01:47:25;;;;;;;26.60;14.97;;;-1.10;93.30;;;-2.17;100.00;96623.63;5086757;28;20517;-74
2023/12/02 01:49:53;;;;;;;24.00;14.87;;;-1.10;93.60;;;-2.20;100.00;96616.00;5087696;28;20501;-74
2023/12/02 01:52:21;;;;;;;22.87;14.30;;;-1.10;93.80;;;-2.04;100.00;96617.78;5085839;28;20517;-74
2023/12/02 01:54:48;;;;;;;23.77;14.87;;;-1.10;94.20;;;-2.24;100.00;96614.69;5086263;28;20444;-74
2023/12/02 01:57:16;;;;;;;28.50;15.33;;;-1.10;94.00;;;-2.19;100.00;96613.19;5087408;28;20455;-74
2023/12/02 01:59:53;;;;;;;28.90;15.60;;;-1.10;94.50;;;-2.72;100.00;96570.47;5085647;28;20485;-74
2023/12/02 02:02:21;;;;;;;29.20;17.20;;;-1.20;94.30;;;-2.24;100.00;96626.13;5077454;28;20486;-74
2023/12/02 02:04:49;;;;;;;28.43;15.33;;;-1.20;94.70;;;-2.29;100.00;96621.31;5086146;28;20447;-74
2023/12/02 02:07:17;;;;;;;31.00;17.00;;;-1.20;94.70;;;-2.24;100.00;96615.53;5082814;28;20942;-74
2023/12/02 02:09:49;;;;;;;25.93;16.13;;;-1.20;95.10;;;-2.19;100.00;96605.25;5085533;28;20541;-74
2023/12/02 02:12:17;;;;;;;26.07;15.33;;;-1.20;95.10;;;-2.09;100.00;96612.19;5090393;28;20452;-75
2023/12/02 02:14:45;;;;;;;27.83;15.30;;;-1.10;95.60;;;-2.01;100.00;96610.34;5087553;28;20493;-73
2023/12/02 02:17:12;;;;;;;25.10;14.73;;;-1.10;95.40;;;-2.13;100.00;96616.97;5085660;28;20452;-74
2023/12/02 02:19:40;;;;;;;30.67;16.00;;;-1.10;95.10;;;-2.18;100.00;96627.25;5082788;28;20442;-73
2023/12/02 02:22:08;;;;;;;32.53;18.43;;;-1.20;94.60;;;-2.06;100.00;96623.25;5087791;28;20468;-73
2023/12/02 02:24:36;;;;;;;28.63;16.33;;;-1.10;95.10;;;-1.96;100.00;96614.28;5101541;28;20459;-74
2023/12/02 02:27:03;;;;;;;27.97;15.57;;;-1.10;94.70;;;-2.23;100.00;96605.75;5106134;28;20468;-73
2023/12/02 02:29:30;;;;;;;29.30;16.17;;;-1.20;94.00;;;-2.25;100.00;96607.75;5105411;28;20437;-73
2023/12/02 02:31:58;;;;;;;29.70;15.53;;;-1.20;94.30;;;-2.14;100.00;96615.34;5104877;28;20896;-73
2023/12/02 02:34:25;;;;;;;24.07;14.60;;;-1.20;94.20;;;-2.14;100.00;96623.28;5105531;28;21011;-73
2023/12/02 02:36:52;;;;;;;22.33;13.90;;;-1.20;94.10;;;-2.44;100.00;96599.19;5099121;28;20534;-74
2023/12/02 02:39:21;;;;;;;25.00;15.03;;;-1.30;93.80;;;-2.41;100.00;96617.38;5098820;28;20466;-73
2023/12/02 02:41:48;;;;;;;27.07;16.43;;;-1.30;93.80;;;-2.39;100.00;96631.25;5094847;28;20527;-74
2023/12/02 02:44:16;;;;;;;27.83;15.40;;;-1.30;94.00;;;-2.39;100.00;96636.53;5088121;28;20811;-74
2023/12/02 02:46:43;;;;;;;27.93;15.73;;;-1.30;94.30;;;-2.35;100.00;96603.47;5082003;28;20443;-74
2023/12/02 02:49:10;;;;;;;29.13;15.57;;;-1.30;94.50;;;-2.41;100.00;96604.13;5086772;28;20449;-73
2023/12/02 02:51:37;;;;;;;27.70;15.60;;;-1.30;94.40;;;-2.42;100.00;96621.00;5086439;28;20958;-75
2023/12/02 02:54:05;;;;;;;29.50;15.77;;;-1.30;94.50;;;-2.47;100.00;96629.44;5085375;28;20460;-74
2023/12/02 02:56:33;;;;;;;27.90;15.60;;;-1.40;94.60;;;-2.37;100.00;96631.09;5084307;28;20455;-73
2023/12/02 02:59:00;;;;;;;26.60;14.77;;;-1.30;94.90;;;-2.60;100.00;96622.03;5079412;28;20452;-74
2023/12/02 03:01:28;;;;;;;32.40;18.20;;;-1.40;94.70;;;-2.33;100.00;96633.25;5090540;28;20472;-75
2023/12/02 03:03:55;;;;;;;27.80;15.63;;;-1.30;94.90;;;-2.31;100.00;96615.38;5086592;28;20456;-74
2023/12/02 03:06:22;;;;;;;28.37;15.07;;;-1.30;95.10;;;-2.20;100.00;96621.28;5083577;28;20454;-74
2023/12/02 03:08:49;;;;;;;25.17;14.73;;;-1.20;95.10;;;-2.54;100.00;96620.53;5087077;28;20839;-75
2023/12/02 03:11:17;;;;;;;26.70;15.73;;;-1.40;94.00;;;-2.64;100.00;96596.06;5085835;28;20475;-74
2023/12/02 03:13:45;;;;;;;22.03;13.40;;;-1.40;93.90;;;-2.38;100.00;96618.84;5087189;28;20536;-74
2023/12/02 03:16:12;;;;;;;27.77;16.73;;;-1.30;94.10;;;-2.52;100.00;96617.69;5083777;28;20468;-74
2023/12/02 03:18:40;;;;;;;27.10;14.33;;;-1.40;93.70;;;-2.53;100.00;96626.63;5101020;28;20457;-74
2023/12/02 03:21:08;;;;;;;24.33;13.30;;;-1.40;93.50;;;-2.42;100.00;96618.34;5086163;28;20477;-74
2023/12/02 03:23:35;;;;;;;27.47;16.10;;;-1.30;93.80;;;-3.34;100.00;96503.09;5086969;28;20450;-74
2023/12/02 03:26:02;;;;;;;26.13;15.13;;;-1.40;93.10;;;-2.53;100.00;96610.75;5085136;28;20448;-73
2023/12/02 03:28:29;;;;;;;27.07;14.70;;;-1.40;93.20;;;-2.60;100.00;96621.19;5102287;28;20455;-74
2023/12/02 03:30:59;;;;;;;26.80;16.50;;;-1.50;92.90;;;-2.51;100.00;96624.63;5085378;28;20927;-74
2023/12/02 03:33:26;;;;;;;30.50;15.07;;;-1.50;93.10;;;-2.33;100.00;96622.66;5082155;28;20462;-74
2023/12/02 03:35:54;;;;;;;33.77;16.23;;;-1.40;93.30;;;-2.33;99.70;96627.94;5084881;28;20453;-73
2023/12/02 03:38:21;;;;;;;23.40;14.50;;;-1.30;93.00;;;-2.31;99.63;96604.78;5083079;28;20474;-74
2023/12/02 03:40:48;;;;;;;24.23;15.03;;;-1.30;92.60;;;-2.42;100.00;96605.13;5082089;28;20933;-74
2023/12/02 03:43:15;;;;;;;28.23;15.30;;;-1.40;92.30;;;-2.43;99.48;96616.72;5082722;28;20944;-74
2023/12/02 03:45:42;;;;;;;30.47;14.67;;;-1.40;92.00;;;-2.42;100.00;96621.00;5077636;28;20448;-73
2023/12/02 03:48:11;;;;;;;22.77;13.63;;;-1.40;92.00;;;-2.47;99.59;96641.84;5084146;28;20448;-73
2023/12/02 03:50:38;;;;;;;26.70;16.57;;;-1.40;92.30;;;-2.43;99.58;96649.28;5084987;28;20846;-73
2023/12/02 03:53:05;;;;;;;24.97;15.10;;;-1.40;92.30;;;-2.57;99.85;96650.78;5085840;28;20535;-74
2023/12/02 03:55:33;;;;;;;25.20;14.97;;;-1.40;91.90;;;-2.64;100.00;96663.03;5078466;28;20456;-74
2023/12/02 03:58:00;;;;;;;24.10;15.33;;;-1.50;91.90;;;-2.68;100.00;96656.38;5083942;28;20532;-74
2023/12/02 04:00:27;;;;;;;24.87;15.40;;;-1.50;91.90;;;-3.00;100.00;96639.50;5084078;28;20524;-74
2023/12/02 04:02:54;;;;;;;28.30;14.63;;;-1.60;91.90;;;-2.89;100.00;96646.28;5086281;28;20472;-74
2023/12/02 04:05:23;;;;;;;27.97;15.27;;;-1.60;92.10;;;-2.60;100.00;96656.41;5086007;28;20556;-73
2023/12/02 04:07:50;;;;;;;25.40;16.27;;;-1.50;92.60;;;-2.77;100.00;96663.50;5099554;28;20767;-74
2023/12/02 04:10:17;;;;;;;30.67;15.93;;;-1.60;92.20;;;-2.69;100.00;96660.03;5086444;28;20464;-74
2023/12/02 04:12:45;;;;;;;24.15;15.10;;;-1.60;92.30;;;-2.65;100.00;96655.25;5087236;28;20513;-74
2023/12/02 04:15:12;;;;;;;23.17;14.03;;;-1.60;92.40;;;-2.72;100.00;96660.38;5088783;28;20174;-74
2023/12/02 04:17:39;;;;;;;24.23;14.17;;;-1.60;92.50;;;-2.69;100.00;96675.88;5089396;28;20441;-74
2023/12/02 04:20:08;;;;;;;24.27;13.63;;;-1.60;92.50;;;-2.76;100.00;96667.78;5089996;28;20452;-74
2023/12/02 04:22:38;;;;;;;29.03;14.73;;;-1.60;92.50;;;-2.67;99.92;96668.63;5088975;28;20513;-75
2023/12/02 04:25:07;;;;;;;28.60;14.97;;;-1.60;92.30;;;-2.44;99.86;96667.97;5085777;28;20444;-73
2023/12/02 04:27:34;;;;;;;26.07;14.50;;;-1.50;92.60;;;-2.55;99.23;96632.09;5089422;28;20485;-74
2023/12/02 04:30:01;;;;;;;25.07;15.33;;;-1.40;92.50;;;-2.53;99.19;96659.22;5088674;28;20439;-74
2023/12/02 04:32:28;;;;;;;23.10;13.73;;;-1.40;92.10;;;-2.60;98.79;96661.69;5087560;28;20474;-73
2023/12/02 04:34:56;;;;;;;22.33;13.20;;;-1.50;91.90;;;-2.66;99.73;96670.28;5089344;28;20461;-75
2023/12/02 04:37:24;;;;;;;23.23;14.20;;;-1.60;91.50;;;-2.61;99.94;96664.50;5085040;28;21018;-73
2023/12/02 04:39:53;;;;;;;23.50;14.03;;;-1.50;91.70;;;-3.11;99.10;96560.53;5087837;28;20451;-74
2023/12/02 04:42:20;;;;;;;25.20;12.23;;;-1.50;92.10;;;-2.69;99.56;96672.44;5094083;28;20519;-74
2023/12/02 04:44:48;;;;;;;27.83;17.07;;;-1.60;91.60;;;-2.79;100.00;96652.25;5080351;28;20977;-74
2023/12/02 04:47:15;;;;;;;30.17;16.13;;;-1.60;91.60;;;-2.67;100.00;96658.03;5080099;28;20452;-74
2023/12/02 04:49:43;;;;;;;31.87;15.13;;;-1.60;92.10;;;-2.82;100.00;96664.97;5076060;28;20449;-74
2023/12/02 04:52:10;;;;;;;22.98;13.30;;;-1.70;91.90;;;-2.68;99.52;96666.97;5076233;28;20756;-74
2023/12/02 04:54:37;;;;;;;28.23;15.53;;;-1.60;92.20;;;-2.49;99.13;96659.72;5094433;28;20267;-74
2023/12/02 04:57:06;;;;;;;23.70;13.93;;;-1.50;92.30;;;-3.14;98.82;96591.59;5086685;28;20440;-75
2023/12/02 04:59:33;;;;;;;27.13;13.73;;;-1.60;91.50;;;-3.81;99.58;96513.25;5078210;28;20444;-74
2023/12/02 05:02:00;;;;;;;27.57;14.70;;;-1.60;91.50;;;-2.66;100.00;96680.03;5077595;28;20483;-74
2023/12/02 05:04:27;;;;;;;24.33;13.57;;;-1.60;91.70;;;-2.70;98.86;96650.44;5078648;28;20456;-75
2023/12/02 05:06:55;;;;;;;22.00;13.30;;;-1.50;92.10;;;-2.65;99.56;96698.41;5102570;28;20460;-74
2023/12/02 05:09:22;;;;;;;26.43;14.07;;;-1.60;91.70;;;-2.63;99.22;96693.75;5079288;28;20451;-74
2023/12/02 05:11:49;;;;;;;23.00;13.53;;;-1.60;91.80;;;-2.90;98.06;96685.13;5082180;28;20456;-75
2023/12/02 05:14:18;;;;;;;23.83;13.50;;;-1.60;91.20;;;-2.77;98.33;96720.84;5079610;28;20498;-73
2023/12/02 05:16:45;;;;;;;22.50;13.00;;;-1.70;91.00;;;-2.97;98.88;96718.47;5082291;28;20932;-74
2023/12/02 05:19:12;;;;;;;21.77;13.00;;;-1.70;90.90;;;-2.80;98.00;96726.47;5088566;28;20776;-74
2023/12/02 05:21:40;;;;;;;24.00;13.37;;;-1.70;91.00;;;-2.81;97.74;96714.22;5085223;28;20444;-73
2023/12/02 05:24:08;;;;;;;20.40;13.20;;;-1.70;91.00;;;-2.94;98.32;96730.56;5087943;28;20432;-75
2023/12/02 05:26:35;;;;;;;25.13;14.23;;;-1.70;90.50;;;-2.97;98.11;96726.41;5084583;28;20459;-74
2023/12/02 05:29:05;;;;;;;23.33;13.83;;;-1.80;90.40;;;-3.09;98.47;96714.50;5084073;28;20453;-74
2023/12/02 05:31:34;;;;;;;24.97;14.43;;;-1.80;90.50;;;-2.96;98.51;96717.50;5086147;28;20533;-73
2023/12/02 05:34:01;;;;;;;25.23;14.40;;;-1.80;90.90;;;-2.99;98.44;96744.25;5084936;28;20501;-74
2023/12/02 05:36:28;;;;;;;23.50;14.90;;;-1.80;90.70;;;-3.06;98.40;96725.56;5083865;28;20462;-74
2023/12/02 05:38:55;;;;;;;23.73;12.53;;;-1.80;90.60;;;-3.01;98.08;96740.94;5087580;28;20513;-74
2023/12/02 05:41:22;;;;;;;23.80;13.60;;;-1.80;90.40;;;-2.90;98.14;96745.94;5086434;28;20608;-74
2023/12/02 05:43:49;;;;;;;24.83;13.03;;;-1.80;90.60;;;-3.01;98.43;96746.22;5086331;28;20467;-73
2023/12/02 05:46:18;;;;;;;26.97;16.17;;;-1.90;90.40;;;-2.97;98.78;96766.06;5099461;28;21027;-74
2023/12/02 05:48:46;;;;;;;23.50;13.23;;;-1.90;90.40;;;-2.88;98.56;96757.19;5087047;28;20444;-74
2023/12/02 05:51:14;;;;;;;28.80;14.17;;;-1.80;90.90;;;-2.83;98.14;96763.78;5090060;28;20588;-73
2023/12/02 05:53:41;;;;;;;21.87;12.73;;;-1.80;91.00;;;-2.98;98.02;96756.47;5088633;28;20447;-75
2023/12/02 05:56:10;;;;;;;25.67;14.20;;;-1.80;90.70;;;-2.95;97.54;96761.47;5084816;28;20454;-74
2023/12/02 05:58:37;;;;;;;19.17;12.07;;;-1.80;90.60;;;-3.17;97.87;96762.88;5085323;28;21020;-74
2023/12/02 06:01:04;;;;;;;25.10;14.30;;;-1.90;90.10;;;-2.95;98.58;96766.75;5087718;28;20464;-74
2023/12/02 06:03:31;;;;;;;22.93;12.87;;;-1.90;90.50;;;-2.88;97.99;96753.69;5081939;28;20471;-74
2023/12/02 06:05:59;;;;;;;25.77;15.13;;;-1.80;90.60;;;-2.79;97.52;96755.38;5085222;28;20929;-73
2023/12/02 06:08:26;;;;;;;25.97;13.53;;;-1.80;90.70;;;-2.93;97.07;96738.34;5086404;28;20504;-74
2023/12/02 06:10:54;;;;;;;25.83;15.33;;;-1.70;90.70;;;-3.02;97.43;96739.28;5086697;28;20455;-74
2023/12/02 06:13:21;;;;;;;23.70;14.73;;;-1.90;90.00;;;-3.10;97.28;96739.28;5085810;28;20448;-74
2023/12/02 06:15:48;;;;;;;20.83;13.00;;;-1.90;89.80;;;-3.11;98.36;96742.88;5085247;28;21067;-74
2023/12/02 06:18:15;;;;;;;25.30;13.37;;;-2.00;89.90;;;-3.06;97.50;96748.53;5086225;28;20953;-75
2023/12/02 06:20:42;;;;;;;22.03;13.57;;;-1.90;90.00;;;-3.16;98.06;96760.06;5100980;28;20957;-74
2023/12/02 06:23:11;;;;;;;23.93;13.53;;;-2.00;90.10;;;-3.21;98.52;96748.31;5084177;28;20473;-74
2023/12/02 06:25:38;;;;;;;84.93;66.53;;;-2.00;90.20;;;-3.23;98.20;96764.34;5086507;28;20919;-76
2023/12/02 06:28:06;;;;;;;117.50;84.10;;;-2.00;90.30;;;-3.10;97.93;96784.22;5087093;28;20449;-74
2023/12/02 06:30:33;;;;;;;52.80;37.80;;;-2.00;90.30;;;-3.18;97.04;96769.97;5085791;28;20456;-75
2023/12/02 06:33:00;;;;;;;27.90;19.53;;;-1.90;90.10;;;-3.19;97.11;96786.81;5088559;28;20778;-75
2023/12/02 06:35:28;;;;;;;22.87;13.13;;;-2.00;89.80;;;-3.31;97.53;96791.53;5086785;28;20452;-74
2023/12/02 06:37:55;;;;;;;23.30;13.43;;;-2.00;89.90;;;-3.22;97.04;96802.13;5079083;28;20461;-76
2023/12/02 06:40:24;;;;;;;18.13;11.83;;;-2.00;89.50;;;-3.05;97.48;96797.75;5086736;28;20860;-74
2023/12/02 06:42:51;;;;;;;21.63;13.43;;;-1.90;90.80;;;-3.25;96.77;96824.44;5085231;28;20466;-74
2023/12/02 06:45:18;;;;;;;23.90;13.07;;;-2.00;90.00;;;-3.18;97.28;96827.28;5078800;28;20537;-74
2023/12/02 06:47:45;;;;;;;19.70;12.30;;;-2.00;89.80;;;-3.06;97.21;96818.06;5077283;28;20450;-74
2023/12/02 06:50:12;;;;;;;25.00;13.73;;;-2.00;90.40;;;-2.90;96.76;96827.88;5080031;28;20509;-74
2023/12/02 06:52:40;;;;;;;23.73;13.80;;;-1.90;90.20;;;-3.25;96.77;96829.72;5073438;28;20464;-75
2023/12/02 06:55:09;;;;;;;20.10;12.37;;;-2.00;88.60;;;-3.23;96.91;96833.03;5074994;28;20460;-74
2023/12/02 06:57:38;;;;;;;20.50;12.50;;;-2.00;89.10;;;-3.13;97.21;96822.34;5074466;28;20452;-74
2023/12/02 07:00:10;;;;;;;23.00;12.77;;;-2.00;89.30;;;-3.22;97.42;96826.75;5080775;28;20461;-72
2023/12/02 07:02:38;;;;;;;24.00;14.30;;;-2.00;89.70;;;-3.01;96.00;96814.94;5082687;28;20467;-76
2023/12/02 07:05:06;;;;;;;18.57;12.03;;;-1.90;89.70;;;-2.95;95.97;96827.53;5078620;28;20532;-76
2023/12/02 07:07:33;;;;;;;22.00;13.53;;;-1.90;89.10;;;-3.16;95.12;96775.09;5072235;28;20457;-75
2023/12/02 07:10:01;;;;;;;21.00;11.40;;;-1.80;88.90;;;-2.93;93.88;96822.09;5076267;28;20474;-75
2023/12/02 07:12:28;;;;;;;21.93;13.20;;;-1.80;87.20;;;-2.82;94.34;96831.53;5071053;28;20995;-76
2023/12/02 07:14:56;;;;;;;18.63;12.53;;;-1.80;87.20;;;-2.87;93.99;96832.84;5080510;28;20448;-76
2023/12/02 07:17:23;;;;;;;23.13;13.50;;;-1.70;86.70;;;-2.85;94.08;96830.06;5085028;28;20451;-75
2023/12/02 07:19:50;;;;;;;22.50;12.23;;;-1.70;86.40;;;-2.88;94.71;96831.19;5087866;28;20476;-75
2023/12/02 07:22:18;;;;;;;19.87;12.70;;;-1.80;86.40;;;-2.90;93.41;96838.47;5085700;28;20452;-77
2023/12/02 07:24:45;;;;;;;18.63;11.77;;;-1.80;85.90;;;-2.88;93.70;96836.47;5084243;28;21188;-77
2023/12/02 07:27:12;;;;;;;23.50;11.87;;;-1.80;86.00;;;-2.77;94.44;96842.47;5086146;28;20963;-75
2023/12/02 07:29:40;;;;;;;19.80;11.90;;;-1.70;86.50;;;-2.75;93.96;96840.50;5083125;28;20552;-76
2023/12/02 07:32:08;;;;;;;21.53;13.10;;;-1.70;86.70;;;-2.92;94.11;96844.88;5076915;28;20456;-75
2023/12/02 07:34:36;;;;;;;22.10;12.73;;;-1.80;86.20;;;-3.04;94.58;96837.22;5081674;28;20966;-76
2023/12/02 07:37:04;;;;;;;21.13;11.60;;;-1.80;86.00;;;-2.98;95.05;96851.63;5077898;28;20518;-76
2023/12/02 07:39:31;;;;;;;25.03;14.70;;;-1.80;86.40;;;-2.95;95.30;96845.22;5072342;28;20509;-76
2023/12/02 07:41:58;;;;;;;19.53;11.50;;;-1.80;86.90;;;-2.82;94.40;96865.91;5084859;28;20994;-76
2023/12/02 07:44:26;;;;;;;27.00;11.80;;;-1.80;87.10;;;-2.78;94.54;96861.97;5079370;28;20769;-76
2023/12/02 07:46:53;;;;;;;20.13;12.83;;;-1.70;87.10;;;-2.74;94.16;96880.00;5083815;28;20476;-76
2023/12/02 07:49:21;;;;;;;22.43;12.63;;;-1.70;87.30;;;-3.29;93.97;96831.00;5074684;28;21032;-76
2023/12/02 07:51:49;;;;;;;24.27;14.27;;;-1.70;85.70;;;-3.02;94.11;96882.00;5084796;28;20453;-76
2023/12/02 07:54:16;;;;;;;17.87;10.90;;;-1.70;86.10;;;-2.83;93.82;96895.97;5080604;28;20485;-76
2023/12/02 07:56:43;;;;;;;24.13;13.13;;;-1.70;85.70;;;-2.94;93.85;96884.72;5098758;28;20443;-76
2023/12/02 07:59:10;;;;;;;19.00;11.73;;;-1.80;85.30;;;-2.91;92.33;96894.97;5078440;28;20455;-76
2023/12/02 08:01:38;;;;;;;17.93;10.80;;;-1.80;84.10;;;-2.89;92.22;96900.91;5079872;28;20512;-75
2023/12/02 08:04:05;;;;;;;21.17;12.23;;;-1.70;84.10;;;-2.74;92.91;96910.91;5089911;28;20479;-75
2023/12/02 08:06:33;;;;;;;20.00;11.97;;;-1.70;84.60;;;-2.72;92.72;96915.06;5081145;28;20464;-79
2023/12/02 08:09:01;;;;;;;19.87;11.97;;;-1.70;84.40;;;-2.65;92.93;96896.75;5088783;28;20475;-76
2023/12/02 08:11:29;;;;;;;21.17;12.73;;;-1.60;85.10;;;-2.61;92.01;96911.28;5089972;28;20456;-77
2023/12/02 08:13:56;;;;;;;23.20;12.80;;;-1.50;84.80;;;-2.63;92.52;96923.84;5089792;28;20447;-76
2023/12/02 08:16:24;;;;;;;22.20;12.30;;;-1.60;84.50;;;-2.57;92.60;96935.63;5082980;28;20452;-76
2023/12/02 08:18:51;;;;;;;15.53;11.53;;;-1.50;84.70;;;-2.72;91.38;96940.66;5085511;28;20455;-76
2023/12/02 08:21:18;;;;;;;20.53;12.00;;;-1.60;83.70;;;-2.69;92.23;96935.03;5083712;28;20934;-76
2023/12/02 08:23:46;;;;;;;16.43;11.37;;;-1.60;83.90;;;-2.73;92.28;96923.13;5085067;28;21223;-76
2023/12/02 08:26:14;;;;;;;22.53;12.30;;;-1.60;84.10;;;-2.54;91.66;96942.38;5088611;28;20501;-76
2023/12/02 08:28:42;;;;;;;21.30;12.77;;;-1.50;84.70;;;-2.62;91.63;96936.09;5090096;28;20451;-77
2023/12/02 08:31:10;;;;;;;21.57;13.93;;;-1.50;84.50;;;-2.60;92.07;96949.97;5085448;28;20448;-76
2023/12/02 08:33:37;;;;;;;20.03;12.30;;;-1.50;84.30;;;-2.65;92.14;96946.16;5085933;28;20448;-77
2023/12/02 08:36:05;;;;;;;19.70;10.83;;;-1.50;84.20;;;-2.72;92.06;96946.78;5086316;28;20440;-75
2023/12/02 08:38:33;;;;;;;20.93;11.80;;;-1.60;83.60;;;-2.71;92.63;96951.09;5087453;28;20480;-76
2023/12/02 08:41:01;;;;;;;20.97;13.33;;;-1.60;84.10;;;-2.91;92.27;96931.97;5088028;28;20948;-76
2023/12/02 08:43:29;;;;;;;20.20;13.00;;;-1.60;83.90;;;-2.93;93.07;96949.81;5078448;28;20808;-75
2023/12/02 08:45:56;;;;;;;21.40;11.87;;;-1.70;84.00;;;-2.83;92.19;96956.78;5080570;28;20460;-75
2023/12/02 08:48:24;;;;;;;19.87;12.63;;;-1.70;83.30;;;-2.81;92.81;96963.59;5087205;28;20444;-75
2023/12/02 08:50:52;;;;;;;17.77;10.77;;;-1.70;84.20;;;-2.71;92.98;96959.03;5088047;28;20841;-75
2023/12/02 08:53:19;;;;;;;18.43;11.23;;;-1.60;84.40;;;-2.77;91.57;96969.41;5088794;28;21151;-78
2023/12/02 08:55:46;;;;;;;19.73;10.70;;;-1.60;83.20;;;-2.88;90.89;96958.09;5078147;28;20460;-76
2023/12/02 08:58:15;;;;;;;20.33;10.90;;;-1.60;82.60;;;-2.77;91.19;96969.41;5092862;28;20442;-78
2023/12/02 09:00:42;;;;;;;16.73;11.20;;;-1.60;82.70;;;-2.92;91.39;96959.41;5078735;28;20582;-77
2023/12/02 09:03:10;;;;;;;18.03;11.40;;;-1.70;82.20;;;-2.69;90.64;96960.69;5083760;28;20517;-76
2023/12/02 09:05:37;;;;;;;17.93;11.30;;;-1.60;83.00;;;-2.56;90.40;96963.72;5088174;28;20512;-76
2023/12/02 09:08:04;;;;;;;17.27;10.80;;;-1.50;82.90;;;-2.63;90.50;96966.16;5088552;28;20452;-77
2023/12/02 09:10:32;;;;;;;20.03;10.70;;;-1.50;82.10;;;-3.04;89.61;96905.13;5089192;28;20922;-77
2023/12/02 09:12:59;;;;;;;19.27;11.33;;;-1.50;81.70;;;-2.66;89.08;96973.59;5087875;28;21027;-76
2023/12/02 09:15:41;;;;;;;20.20;11.83;;;-1.50;81.30;;;-2.66;89.44;96970.94;5086520;28;20456;-76
2023/12/02 09:18:14;;;;;;;18.20;12.20;;;-1.60;81.50;;;-2.55;90.38;96975.97;5088854;28;21069;-76
2023/12/02 09:20:47;;;;;;;17.30;11.40;;;-1.50;81.90;;;-2.61;90.63;96969.47;5087389;28;20448;-77
2023/12/02 09:23:16;;;;;;;20.73;10.93;;;-1.40;82.60;;;-2.59;89.90;96970.16;5099924;28;20467;-76
2023/12/02 09:25:44;;;;;;;18.90;10.20;;;-1.40;82.00;;;-2.33;89.23;96977.22;5078836;28;20460;-77
2023/12/02 09:28:19;;;;;;;18.20;10.70;;;-1.30;82.00;;;-2.41;89.01;96974.53;5084166;28;20456;-74
2023/12/02 09:30:59;;;;;;;16.27;9.60;;;-1.30;81.10;;;-2.87;88.85;96912.16;5086176;28;20450;-75
2023/12/02 09:33:27;;;;;;;17.87;8.50;;;-1.30;80.80;;;-2.25;87.55;96989.66;5088084;28;20444;-76
2023/12/02 09:35:58;;;;;;;17.00;10.30;;;-1.20;80.80;;;-2.14;87.47;96992.00;5086518;28;20448;-76
2023/12/02 09:38:26;;;;;;;18.07;10.10;;;-1.10;80.50;;;-2.16;85.83;96998.44;5087938;28;20531;-76
2023/12/02 09:41:14;;;;;;;17.17;12.03;;;-1.10;79.80;;;-2.58;86.39;96971.81;5087495;28;20439;-77
2023/12/02 09:44:04;;;;;;;14.83;9.83;;;-1.20;79.10;;;-2.82;87.31;96918.78;5087649;28;20847;-78
2023/12/02 09:46:37;;;;;;;14.07;9.17;;;-1.30;79.50;;;-2.39;86.45;96983.13;5078460;28;20440;-76
2023/12/02 09:49:27;;;;;;;15.00;8.70;;;-1.30;79.20;;;-2.32;86.61;96976.22;5086803;28;20443;-78
2023/12/02 09:52:24;;;;;;;16.27;9.70;;;-1.20;79.40;;;-2.34;86.24;96983.50;5086086;28;20505;-77
2023/12/02 09:55:10;;;;;;;15.10;9.40;;;-1.20;79.50;;;-2.43;85.97;96973.84;5086369;28;21000;-76
2023/12/02 09:57:48;;;;;;;17.23;10.00;;;-1.20;79.10;;;-2.14;86.10;97002.56;5085681;28;20444;-76
2023/12/02 10:00:30;;;;;;;18.63;11.43;;;-1.10;79.60;;;-2.24;86.17;96985.19;5078754;28;20541;-75
2023/12/02 10:03:44;;;;;;;14.13;9.40;;;-1.10;79.30;;;-2.10;86.40;97012.88;5080936;28;20488;-77
2023/12/02 10:06:28;;;;;;;18.43;10.60;;;-1.10;79.20;;;-2.28;85.21;97019.91;5056625;28;20455;-76
2023/12/02 10:09:07;;;;;;;17.33;9.93;;;-1.20;78.60;;;-2.31;84.92;97024.69;5099475;28;20457;-77